sensor_id;sensor_type;location;lat;lon;timestamp;noise_LAeq;noise_LA_min;noise_LA_max;noise_LA01;noise_LA95
67398;Laerm;57728;50.448;18.824;2024-02-26T00:00:03;34.80;33.01;38.99;;
67398;Laerm;57728;50.448;18.824;2024-02-26T00:02:06;34.48;33.22;35.62;;
67398;Laerm;57728;50.448;18.824;2024-02-26T00:04:07;34.46;33.33;35.64;;
67398;Laerm;57728;50.448;18.824;2024-02-26T00:06:08;34.48;33.24;35.78;;
67398;Laerm;57728;50.448;18.824;2024-02-26T00:08:10;34.84;33.51;40.02;;
67398;Laerm;57728;50.448;18.824;2024-02-26T00:10:13;34.50;33.19;35.81;;
67398;Laerm;57728;50.448;18.824;2024-02-26T00:12:14;34.51;33.17;35.67;;
67398;Laerm;57728;50.448;18.824;2024-02-26T00:14:16;34.55;33.47;35.91;;
67398;Laerm;57728;50.448;18.824;2024-02-26T00:16:17;34.55;33.43;35.82;;
67398;Laerm;57728;50.448;18.824;2024-02-26T00:18:18;34.57;33.26;37.46;;
67398;Laerm;57728;50.448;18.824;2024-02-26T00:20:20;34.56;33.46;35.89;;
67398;Laerm;57728;50.448;18.824;2024-02-26T00:22:21;34.59;33.39;35.77;;
67398;Laerm;57728;50.448;18.824;2024-02-26T00:24:23;34.63;33.37;35.71;;
67398;Laerm;57728;50.448;18.824;2024-02-26T00:26:24;34.73;33.56;36.45;;
67398;Laerm;57728;50.448;18.824;2024-02-26T00:28:26;34.69;33.25;36.68;;
67398;Laerm;57728;50.448;18.824;2024-02-26T00:30:28;34.70;33.47;35.88;;
67398;Laerm;57728;50.448;18.824;2024-02-26T00:32:30;34.71;33.40;36.07;;
67398;Laerm;57728;50.448;18.824;2024-02-26T00:34:31;34.71;33.37;35.76;;
67398;Laerm;57728;50.448;18.824;2024-02-26T00:36:32;34.76;33.40;41.44;;
67398;Laerm;57728;50.448;18.824;2024-02-26T00:38:34;34.71;33.46;35.96;;
67398;Laerm;57728;50.448;18.824;2024-02-26T00:40:35;34.71;33.49;38.74;;
67398;Laerm;57728;50.448;18.824;2024-02-26T00:42:36;34.66;33.50;36.82;;
67398;Laerm;57728;50.448;18.824;2024-02-26T00:44:38;34.68;33.30;35.99;;
67398;Laerm;57728;50.448;18.824;2024-02-26T00:46:39;34.68;33.52;36.98;;
67398;Laerm;57728;50.448;18.824;2024-02-26T00:48:40;34.70;33.59;37.14;;
67398;Laerm;57728;50.448;18.824;2024-02-26T00:50:42;34.67;33.42;36.33;;
67398;Laerm;57728;50.448;18.824;2024-02-26T00:52:43;34.67;33.38;36.22;;
67398;Laerm;57728;50.448;18.824;2024-02-26T00:54:45;34.71;33.57;37.63;;
67398;Laerm;57728;50.448;18.824;2024-02-26T00:56:46;34.69;33.42;36.50;;
67398;Laerm;57728;50.448;18.824;2024-02-26T00:58:47;34.69;33.19;40.24;;
67398;Laerm;57728;50.448;18.824;2024-02-26T01:00:49;34.66;33.46;35.82;;
67398;Laerm;57728;50.448;18.824;2024-02-26T01:02:50;34.67;33.44;35.85;;
67398;Laerm;57728;50.448;18.824;2024-02-26T01:04:52;34.67;33.56;36.02;;
67398;Laerm;57728;50.448;18.824;2024-02-26T01:06:53;34.71;33.47;36.17;;
67398;Laerm;57728;50.448;18.824;2024-02-26T01:08:55;34.71;33.33;36.35;;
67398;Laerm;57728;50.448;18.824;2024-02-26T01:10:56;34.71;33.51;35.92;;
67398;Laerm;57728;50.448;18.824;2024-02-26T01:12:57;34.73;33.24;35.97;;
67398;Laerm;57728;50.448;18.824;2024-02-26T01:15:03;34.77;33.35;36.92;;
67398;Laerm;57728;50.448;18.824;2024-02-26T01:17:04;34.70;33.42;36.07;;
67398;Laerm;57728;50.448;18.824;2024-02-26T01:19:05;34.72;33.46;36.16;;
67398;Laerm;57728;50.448;18.824;2024-02-26T01:21:07;34.70;33.21;38.85;;
67398;Laerm;57728;50.448;18.824;2024-02-26T01:23:09;34.69;33.32;36.82;;
67398;Laerm;57728;50.448;18.824;2024-02-26T01:25:11;34.71;33.56;37.72;;
67398;Laerm;57728;50.448;18.824;2024-02-26T01:27:13;34.71;33.37;36.17;;
67398;Laerm;57728;50.448;18.824;2024-02-26T01:29:16;34.82;33.51;39.17;;
67398;Laerm;57728;50.448;18.824;2024-02-26T01:31:17;34.73;33.40;36.43;;
67398;Laerm;57728;50.448;18.824;2024-02-26T01:33:19;34.70;33.51;35.92;;
67398;Laerm;57728;50.448;18.824;2024-02-26T01:35:20;34.73;33.32;37.97;;
67398;Laerm;57728;50.448;18.824;2024-02-26T01:37:22;34.71;33.62;35.80;;
67398;Laerm;57728;50.448;18.824;2024-02-26T01:39:24;34.75;33.52;36.89;;
67398;Laerm;57728;50.448;18.824;2024-02-26T01:41:26;34.76;33.58;35.85;;
67398;Laerm;57728;50.448;18.824;2024-02-26T01:43:27;34.84;33.65;36.05;;
67398;Laerm;57728;50.448;18.824;2024-02-26T01:45:29;35.01;33.63;40.75;;
67398;Laerm;57728;50.448;18.824;2024-02-26T01:47:30;34.84;33.32;36.78;;
67398;Laerm;57728;50.448;18.824;2024-02-26T01:49:31;34.82;33.68;36.19;;
67398;Laerm;57728;50.448;18.824;2024-02-26T01:51:35;34.81;33.49;36.01;;
67398;Laerm;57728;50.448;18.824;2024-02-26T01:53:37;34.80;33.52;35.92;;
67398;Laerm;57728;50.448;18.824;2024-02-26T01:55:39;34.83;33.53;36.08;;
67398;Laerm;57728;50.448;18.824;2024-02-26T01:57:45;34.82;33.58;36.08;;
67398;Laerm;57728;50.448;18.824;2024-02-26T01:59:47;34.84;33.66;36.20;;
67398;Laerm;57728;50.448;18.824;2024-02-26T02:01:55;34.84;33.48;35.98;;
67398;Laerm;57728;50.448;18.824;2024-02-26T02:04:00;34.86;33.54;35.97;;
67398;Laerm;57728;50.448;18.824;2024-02-26T02:06:03;34.87;33.60;36.14;;
67398;Laerm;57728;50.448;18.824;2024-02-26T02:08:09;34.91;33.54;36.18;;
67398;Laerm;57728;50.448;18.824;2024-02-26T02:10:12;34.90;33.72;36.13;;
67398;Laerm;57728;50.448;18.824;2024-02-26T02:12:14;34.93;33.81;36.26;;
67398;Laerm;57728;50.448;18.824;2024-02-26T02:14:15;34.91;33.83;36.39;;
67398;Laerm;57728;50.448;18.824;2024-02-26T02:16:17;34.93;33.45;36.20;;
67398;Laerm;57728;50.448;18.824;2024-02-26T02:18:19;34.94;33.73;36.22;;
67398;Laerm;57728;50.448;18.824;2024-02-26T02:20:35;34.89;33.57;36.01;;
67398;Laerm;57728;50.448;18.824;2024-02-26T02:22:37;34.91;33.78;36.28;;
67398;Laerm;57728;50.448;18.824;2024-02-26T02:24:39;34.90;33.68;36.02;;
67398;Laerm;57728;50.448;18.824;2024-02-26T02:26:40;35.01;33.77;37.54;;
67398;Laerm;57728;50.448;18.824;2024-02-26T02:28:42;35.08;33.75;41.24;;
67398;Laerm;57728;50.448;18.824;2024-02-26T02:30:44;34.94;33.84;37.37;;
67398;Laerm;57728;50.448;18.824;2024-02-26T02:32:45;34.89;33.51;36.02;;
67398;Laerm;57728;50.448;18.824;2024-02-26T02:34:47;35.01;33.79;36.59;;
67398;Laerm;57728;50.448;18.824;2024-02-26T02:36:54;34.89;33.59;36.11;;
67398;Laerm;57728;50.448;18.824;2024-02-26T02:38:56;34.90;33.72;36.11;;
67398;Laerm;57728;50.448;18.824;2024-02-26T02:40:57;34.88;33.60;36.05;;
67398;Laerm;57728;50.448;18.824;2024-02-26T02:42:58;34.90;33.61;36.01;;
67398;Laerm;57728;50.448;18.824;2024-02-26T02:45:03;34.94;33.68;36.43;;
67398;Laerm;57728;50.448;18.824;2024-02-26T02:47:04;35.01;33.68;39.05;;
67398;Laerm;57728;50.448;18.824;2024-02-26T02:49:10;34.98;33.72;41.02;;
67398;Laerm;57728;50.448;18.824;2024-02-26T02:51:12;34.99;33.75;46.12;;
67398;Laerm;57728;50.448;18.824;2024-02-26T02:53:13;34.95;33.79;40.26;;
67398;Laerm;57728;50.448;18.824;2024-02-26T02:55:18;34.95;33.60;37.65;;
67398;Laerm;57728;50.448;18.824;2024-02-26T02:57:20;34.95;33.74;40.02;;
67398;Laerm;57728;50.448;18.824;2024-02-26T02:59:21;34.94;33.49;36.30;;
67398;Laerm;57728;50.448;18.824;2024-02-26T03:01:22;34.99;33.82;37.21;;
67398;Laerm;57728;50.448;18.824;2024-02-26T03:03:24;35.00;33.78;38.52;;
67398;Laerm;57728;50.448;18.824;2024-02-26T03:05:26;34.97;33.75;37.46;;
67398;Laerm;57728;50.448;18.824;2024-02-26T03:07:27;35.01;33.67;39.26;;
67398;Laerm;57728;50.448;18.824;2024-02-26T03:09:29;35.04;33.85;38.35;;
67398;Laerm;57728;50.448;18.824;2024-02-26T03:11:30;35.10;33.85;41.96;;
67398;Laerm;57728;50.448;18.824;2024-02-26T03:13:31;35.02;33.65;38.94;;
67398;Laerm;57728;50.448;18.824;2024-02-26T03:15:33;35.03;33.95;39.38;;
67398;Laerm;57728;50.448;18.824;2024-02-26T03:17:34;34.98;33.82;36.41;;
67398;Laerm;57728;50.448;18.824;2024-02-26T03:19:35;34.97;33.68;37.32;;
67398;Laerm;57728;50.448;18.824;2024-02-26T03:21:37;35.05;33.69;43.58;;
67398;Laerm;57728;50.448;18.824;2024-02-26T03:23:38;35.05;33.84;39.68;;
67398;Laerm;57728;50.448;18.824;2024-02-26T03:25:43;35.03;33.84;38.28;;
67398;Laerm;57728;50.448;18.824;2024-02-26T03:27:45;35.00;33.55;36.28;;
67398;Laerm;57728;50.448;18.824;2024-02-26T03:29:46;35.03;33.89;39.03;;
67398;Laerm;57728;50.448;18.824;2024-02-26T03:31:48;35.08;33.70;43.10;;
67398;Laerm;57728;50.448;18.824;2024-02-26T03:33:50;35.01;33.83;40.16;;
67398;Laerm;57728;50.448;18.824;2024-02-26T03:35:51;35.03;33.80;36.33;;
67398;Laerm;57728;50.448;18.824;2024-02-26T03:37:52;35.04;33.83;36.23;;
67398;Laerm;57728;50.448;18.824;2024-02-26T03:39:54;35.03;33.84;36.73;;
67398;Laerm;57728;50.448;18.824;2024-02-26T03:41:55;35.08;33.76;36.73;;
67398;Laerm;57728;50.448;18.824;2024-02-26T03:43:56;35.04;33.79;36.79;;
67398;Laerm;57728;50.448;18.824;2024-02-26T03:45:58;35.11;33.84;37.45;;
67398;Laerm;57728;50.448;18.824;2024-02-26T03:47:59;35.08;33.79;36.36;;
67398;Laerm;57728;50.448;18.824;2024-02-26T03:50:04;35.06;33.87;36.29;;
67398;Laerm;57728;50.448;18.824;2024-02-26T03:52:06;35.05;33.80;36.38;;
67398;Laerm;57728;50.448;18.824;2024-02-26T03:54:07;35.09;33.85;36.53;;
67398;Laerm;57728;50.448;18.824;2024-02-26T03:56:13;35.23;33.76;40.12;;
67398;Laerm;57728;50.448;18.824;2024-02-26T03:58:15;35.09;33.96;36.30;;
67398;Laerm;57728;50.448;18.824;2024-02-26T04:00:16;35.16;33.98;36.60;;
67398;Laerm;57728;50.448;18.824;2024-02-26T04:02:17;35.16;33.90;37.20;;
67398;Laerm;57728;50.448;18.824;2024-02-26T04:04:21;35.14;33.78;36.66;;
67398;Laerm;57728;50.448;18.824;2024-02-26T04:06:22;35.19;33.80;37.73;;
67398;Laerm;57728;50.448;18.824;2024-02-26T04:08:23;35.27;33.91;42.81;;
67398;Laerm;57728;50.448;18.824;2024-02-26T04:10:25;35.18;33.67;38.83;;
67398;Laerm;57728;50.448;18.824;2024-02-26T04:12:26;35.19;33.77;39.31;;
67398;Laerm;57728;50.448;18.824;2024-02-26T04:14:27;35.40;33.71;39.91;;
67398;Laerm;57728;50.448;18.824;2024-02-26T04:16:29;35.22;33.94;48.23;;
67398;Laerm;57728;50.448;18.824;2024-02-26T04:18:30;35.21;33.75;38.39;;
67398;Laerm;57728;50.448;18.824;2024-02-26T04:20:31;35.19;33.79;36.62;;
67398;Laerm;57728;50.448;18.824;2024-02-26T04:22:33;35.31;34.06;39.23;;
67398;Laerm;57728;50.448;18.824;2024-02-26T04:24:36;35.26;34.01;37.59;;
67398;Laerm;57728;50.448;18.824;2024-02-26T04:26:37;35.26;33.91;37.12;;
67398;Laerm;57728;50.448;18.824;2024-02-26T04:28:39;35.36;34.03;39.58;;
67398;Laerm;57728;50.448;18.824;2024-02-26T04:30:41;35.18;33.93;36.42;;
67398;Laerm;57728;50.448;18.824;2024-02-26T04:32:42;35.23;34.12;38.45;;
67398;Laerm;57728;50.448;18.824;2024-02-26T04:34:44;35.22;33.83;38.59;;
67398;Laerm;57728;50.448;18.824;2024-02-26T04:36:45;35.20;33.92;38.83;;
67398;Laerm;57728;50.448;18.824;2024-02-26T04:38:50;35.21;34.04;36.54;;
67398;Laerm;57728;50.448;18.824;2024-02-26T04:40:51;35.27;33.97;38.55;;
67398;Laerm;57728;50.448;18.824;2024-02-26T04:42:53;35.36;34.01;38.27;;
67398;Laerm;57728;50.448;18.824;2024-02-26T04:44:55;35.46;34.13;38.89;;
67398;Laerm;57728;50.448;18.824;2024-02-26T04:46:57;35.31;34.15;37.01;;
67398;Laerm;57728;50.448;18.824;2024-02-26T04:48:58;35.27;34.08;37.49;;
67398;Laerm;57728;50.448;18.824;2024-02-26T04:51:02;35.32;33.75;37.84;;
67398;Laerm;57728;50.448;18.824;2024-02-26T04:53:05;35.41;34.12;39.98;;
67398;Laerm;57728;50.448;18.824;2024-02-26T04:55:06;35.30;34.08;37.24;;
67398;Laerm;57728;50.448;18.824;2024-02-26T04:57:07;35.15;33.91;36.70;;
67398;Laerm;57728;50.448;18.824;2024-02-26T04:59:09;35.29;33.98;38.07;;
67398;Laerm;57728;50.448;18.824;2024-02-26T05:01:10;35.21;33.97;37.65;;
67398;Laerm;57728;50.448;18.824;2024-02-26T05:03:12;35.34;34.15;38.71;;
67398;Laerm;57728;50.448;18.824;2024-02-26T05:05:15;35.05;33.97;36.47;;
67398;Laerm;57728;50.448;18.824;2024-02-26T05:07:16;35.07;33.72;37.03;;
67398;Laerm;57728;50.448;18.824;2024-02-26T05:09:18;35.27;33.94;39.26;;
67398;Laerm;57728;50.448;18.824;2024-02-26T05:11:20;35.48;33.85;41.75;;
67398;Laerm;57728;50.448;18.824;2024-02-26T05:13:21;35.29;33.93;38.67;;
67398;Laerm;57728;50.448;18.824;2024-02-26T05:15:22;35.18;33.98;39.71;;
67398;Laerm;57728;50.448;18.824;2024-02-26T05:17:24;35.49;34.06;39.19;;
67398;Laerm;57728;50.448;18.824;2024-02-26T05:19:25;35.29;33.93;39.65;;
67398;Laerm;57728;50.448;18.824;2024-02-26T05:21:26;35.15;33.79;36.80;;
67398;Laerm;57728;50.448;18.824;2024-02-26T05:23:28;35.56;33.98;39.36;;
67398;Laerm;57728;50.448;18.824;2024-02-26T05:25:29;35.37;33.78;38.63;;
67398;Laerm;57728;50.448;18.824;2024-02-26T05:27:31;35.61;34.11;42.13;;
67398;Laerm;57728;50.448;18.824;2024-02-26T05:29:33;35.98;34.20;50.61;;
67398;Laerm;57728;50.448;18.824;2024-02-26T05:31:34;35.68;34.14;41.52;;
67398;Laerm;57728;50.448;18.824;2024-02-26T05:33:35;35.79;34.07;48.09;;
67398;Laerm;57728;50.448;18.824;2024-02-26T05:35:38;35.92;34.08;46.49;;
67398;Laerm;57728;50.448;18.824;2024-02-26T05:37:39;36.21;34.22;48.90;;
67398;Laerm;57728;50.448;18.824;2024-02-26T05:39:40;36.26;34.39;44.73;;
67398;Laerm;57728;50.448;18.824;2024-02-26T05:41:42;36.03;34.27;43.45;;
67398;Laerm;57728;50.448;18.824;2024-02-26T05:43:44;35.79;34.31;39.83;;
67398;Laerm;57728;50.448;18.824;2024-02-26T05:45:45;38.57;34.58;50.04;;
67398;Laerm;57728;50.448;18.824;2024-02-26T05:47:47;36.22;34.24;41.43;;
67398;Laerm;57728;50.448;18.824;2024-02-26T05:49:48;35.97;34.23;39.83;;
67398;Laerm;57728;50.448;18.824;2024-02-26T05:51:49;35.94;34.10;40.97;;
67398;Laerm;57728;50.448;18.824;2024-02-26T05:53:51;35.81;34.35;43.93;;
67398;Laerm;57728;50.448;18.824;2024-02-26T05:55:55;35.96;34.19;46.94;;
67398;Laerm;57728;50.448;18.824;2024-02-26T05:57:56;35.90;34.38;41.54;;
67398;Laerm;57728;50.448;18.824;2024-02-26T05:59:58;35.88;34.36;40.24;;
67398;Laerm;57728;50.448;18.824;2024-02-26T06:02:12;35.97;34.40;43.66;;
67398;Laerm;57728;50.448;18.824;2024-02-26T06:04:13;35.82;34.34;42.22;;
67398;Laerm;57728;50.448;18.824;2024-02-26T06:06:15;36.47;34.13;46.90;;
67398;Laerm;57728;50.448;18.824;2024-02-26T06:08:16;35.79;34.25;45.75;;
67398;Laerm;57728;50.448;18.824;2024-02-26T06:10:18;36.31;34.02;43.41;;
67398;Laerm;57728;50.448;18.824;2024-02-26T06:12:22;35.95;34.39;41.00;;
67398;Laerm;57728;50.448;18.824;2024-02-26T06:14:24;35.68;34.29;41.74;;
67398;Laerm;57728;50.448;18.824;2024-02-26T06:16:25;35.87;34.26;40.05;;
67398;Laerm;57728;50.448;18.824;2024-02-26T06:18:27;35.89;34.06;40.48;;
67398;Laerm;57728;50.448;18.824;2024-02-26T06:20:28;36.17;34.18;50.32;;
67398;Laerm;57728;50.448;18.824;2024-02-26T06:22:29;35.80;34.20;39.91;;
67398;Laerm;57728;50.448;18.824;2024-02-26T06:24:31;35.89;34.19;40.29;;
67398;Laerm;57728;50.448;18.824;2024-02-26T06:26:32;35.70;34.28;39.53;;
67398;Laerm;57728;50.448;18.824;2024-02-26T06:28:34;35.73;34.29;40.77;;
67398;Laerm;57728;50.448;18.824;2024-02-26T06:30:37;35.87;34.39;43.34;;
67398;Laerm;57728;50.448;18.824;2024-02-26T06:32:38;36.63;34.39;45.17;;
67398;Laerm;57728;50.448;18.824;2024-02-26T06:34:39;35.65;34.29;41.04;;
67398;Laerm;57728;50.448;18.824;2024-02-26T06:36:43;35.62;34.11;39.27;;
67398;Laerm;57728;50.448;18.824;2024-02-26T06:38:44;35.82;34.33;42.74;;
67398;Laerm;57728;50.448;18.824;2024-02-26T06:40:46;35.64;34.13;39.95;;
67398;Laerm;57728;50.448;18.824;2024-02-26T06:42:48;36.43;34.21;50.26;;
67398;Laerm;57728;50.448;18.824;2024-02-26T06:44:49;35.98;34.43;40.79;;
67398;Laerm;57728;50.448;18.824;2024-02-26T06:46:50;35.93;34.29;44.75;;
67398;Laerm;57728;50.448;18.824;2024-02-26T06:48:52;35.59;34.20;41.93;;
67398;Laerm;57728;50.448;18.824;2024-02-26T06:50:53;36.24;34.24;50.47;;
67398;Laerm;57728;50.448;18.824;2024-02-26T06:52:54;36.45;34.10;55.23;;
67398;Laerm;57728;50.448;18.824;2024-02-26T06:54:56;36.43;34.25;49.23;;
67398;Laerm;57728;50.448;18.824;2024-02-26T06:56:57;35.83;34.29;45.36;;
67398;Laerm;57728;50.448;18.824;2024-02-26T06:58:58;35.61;33.99;40.32;;
67398;Laerm;57728;50.448;18.824;2024-02-26T07:01:00;35.90;34.15;44.64;;
67398;Laerm;57728;50.448;18.824;2024-02-26T07:03:01;35.62;33.96;45.14;;
67398;Laerm;57728;50.448;18.824;2024-02-26T07:05:02;35.40;33.71;39.06;;
67398;Laerm;57728;50.448;18.824;2024-02-26T07:07:05;36.46;33.75;45.75;;
67398;Laerm;57728;50.448;18.824;2024-02-26T07:09:07;35.48;33.98;44.87;;
67398;Laerm;57728;50.448;18.824;2024-02-26T07:11:08;35.84;33.93;46.04;;
67398;Laerm;57728;50.448;18.824;2024-02-26T07:13:10;35.35;33.89;48.95;;
67398;Laerm;57728;50.448;18.824;2024-02-26T07:15:11;35.02;33.69;44.19;;
67398;Laerm;57728;50.448;18.824;2024-02-26T07:17:13;35.94;33.77;51.37;;
67398;Laerm;57728;50.448;18.824;2024-02-26T07:19:18;37.97;33.41;47.09;;
67398;Laerm;57728;50.448;18.824;2024-02-26T07:21:19;35.34;33.68;51.54;;
67398;Laerm;57728;50.448;18.824;2024-02-26T07:23:20;35.75;33.62;51.45;;
67398;Laerm;57728;50.448;18.824;2024-02-26T07:25:22;35.02;33.70;50.24;;
67398;Laerm;57728;50.448;18.824;2024-02-26T07:27:23;34.95;33.66;37.92;;
67398;Laerm;57728;50.448;18.824;2024-02-26T07:29:24;35.05;33.61;42.99;;
67398;Laerm;57728;50.448;18.824;2024-02-26T07:31:26;35.01;33.61;45.78;;
67398;Laerm;57728;50.448;18.824;2024-02-26T07:33:27;35.06;33.62;39.22;;
67398;Laerm;57728;50.448;18.824;2024-02-26T07:35:31;35.27;33.60;45.85;;
67398;Laerm;57728;50.448;18.824;2024-02-26T07:37:35;35.00;33.58;38.49;;
67398;Laerm;57728;50.448;18.824;2024-02-26T07:39:36;34.79;33.57;43.37;;
67398;Laerm;57728;50.448;18.824;2024-02-26T07:41:37;35.09;33.39;41.82;;
67398;Laerm;57728;50.448;18.824;2024-02-26T07:43:40;35.06;33.29;40.26;;
67398;Laerm;57728;50.448;18.824;2024-02-26T07:45:42;36.27;33.42;58.09;;
67398;Laerm;57728;50.448;18.824;2024-02-26T07:47:43;35.44;33.39;47.25;;
67398;Laerm;57728;50.448;18.824;2024-02-26T07:49:45;34.72;33.50;37.85;;
67398;Laerm;57728;50.448;18.824;2024-02-26T07:51:46;34.86;33.47;40.09;;
67398;Laerm;57728;50.448;18.824;2024-02-26T07:53:47;34.71;33.42;38.23;;
67398;Laerm;57728;50.448;18.824;2024-02-26T07:55:49;34.87;33.32;42.62;;
67398;Laerm;57728;50.448;18.824;2024-02-26T07:57:50;34.71;33.41;39.11;;
67398;Laerm;57728;50.448;18.824;2024-02-26T07:59:51;34.88;33.32;42.45;;
67398;Laerm;57728;50.448;18.824;2024-02-26T08:01:53;35.17;33.36;47.03;;
67398;Laerm;57728;50.448;18.824;2024-02-26T08:03:55;34.92;33.35;40.05;;
67398;Laerm;57728;50.448;18.824;2024-02-26T08:05:57;34.80;33.33;36.95;;
67398;Laerm;57728;50.448;18.824;2024-02-26T08:07:59;34.67;33.30;37.91;;
67398;Laerm;57728;50.448;18.824;2024-02-26T08:10:00;34.76;33.15;38.10;;
67398;Laerm;57728;50.448;18.824;2024-02-26T08:12:01;34.70;33.38;37.88;;
67398;Laerm;57728;50.448;18.824;2024-02-26T08:14:03;34.90;33.24;38.50;;
67398;Laerm;57728;50.448;18.824;2024-02-26T08:16:04;34.73;33.14;45.52;;
67398;Laerm;57728;50.448;18.824;2024-02-26T08:18:09;34.83;33.21;39.37;;
67398;Laerm;57728;50.448;18.824;2024-02-26T08:20:11;34.50;33.12;38.66;;
67398;Laerm;57728;50.448;18.824;2024-02-26T08:22:12;34.24;33.11;40.42;;
67398;Laerm;57728;50.448;18.824;2024-02-26T08:24:17;34.95;33.03;42.55;;
67398;Laerm;57728;50.448;18.824;2024-02-26T08:26:19;34.64;32.98;39.81;;
67398;Laerm;57728;50.448;18.824;2024-02-26T08:28:21;35.13;33.46;38.37;;
67398;Laerm;57728;50.448;18.824;2024-02-26T08:30:22;35.38;33.69;40.01;;
67398;Laerm;57728;50.448;18.824;2024-02-26T08:32:24;35.06;33.32;38.20;;
67398;Laerm;57728;50.448;18.824;2024-02-26T08:34:26;35.14;33.56;38.04;;
67398;Laerm;57728;50.448;18.824;2024-02-26T08:36:27;34.80;33.41;36.41;;
67398;Laerm;57728;50.448;18.824;2024-02-26T08:38:29;35.22;33.54;39.46;;
67398;Laerm;57728;50.448;18.824;2024-02-26T08:40:30;35.13;33.51;39.29;;
67398;Laerm;57728;50.448;18.824;2024-02-26T08:42:31;35.58;33.61;47.64;;
67398;Laerm;57728;50.448;18.824;2024-02-26T08:44:33;35.45;33.68;40.09;;
67398;Laerm;57728;50.448;18.824;2024-02-26T08:46:34;35.75;33.33;51.48;;
67398;Laerm;57728;50.448;18.824;2024-02-26T08:48:35;34.93;32.90;40.31;;
67398;Laerm;57728;50.448;18.824;2024-02-26T08:50:37;34.53;32.97;38.85;;
67398;Laerm;57728;50.448;18.824;2024-02-26T08:52:38;34.78;33.03;40.89;;
67398;Laerm;57728;50.448;18.824;2024-02-26T08:54:39;34.69;33.03;39.32;;
67398;Laerm;57728;50.448;18.824;2024-02-26T08:56:42;34.81;33.06;38.67;;
67398;Laerm;57728;50.448;18.824;2024-02-26T08:58:43;34.64;33.10;40.08;;
67398;Laerm;57728;50.448;18.824;2024-02-26T09:00:44;34.48;33.00;40.51;;
67398;Laerm;57728;50.448;18.824;2024-02-26T09:02:49;34.61;32.92;41.10;;
67398;Laerm;57728;50.448;18.824;2024-02-26T09:04:50;34.60;33.08;38.87;;
67398;Laerm;57728;50.448;18.824;2024-02-26T09:06:54;34.75;33.20;40.47;;
67398;Laerm;57728;50.448;18.824;2024-02-26T09:08:56;34.62;33.06;48.17;;
67398;Laerm;57728;50.448;18.824;2024-02-26T09:10:57;34.70;32.95;39.49;;
67398;Laerm;57728;50.448;18.824;2024-02-26T09:12:58;34.50;32.96;36.27;;
67398;Laerm;57728;50.448;18.824;2024-02-26T09:15:00;34.80;33.15;39.62;;
67398;Laerm;57728;50.448;18.824;2024-02-26T09:17:01;34.57;33.26;36.57;;
67398;Laerm;57728;50.448;18.824;2024-02-26T09:19:02;34.68;32.48;36.67;;
67398;Laerm;57728;50.448;18.824;2024-02-26T09:21:05;34.73;33.18;45.62;;
67398;Laerm;57728;50.448;18.824;2024-02-26T09:23:09;35.23;33.27;45.08;;
67398;Laerm;57728;50.448;18.824;2024-02-26T09:25:10;34.68;33.02;41.99;;
67398;Laerm;57728;50.448;18.824;2024-02-26T09:27:12;34.78;33.15;46.74;;
67398;Laerm;57728;50.448;18.824;2024-02-26T09:29:13;34.90;33.15;44.48;;
67398;Laerm;57728;50.448;18.824;2024-02-26T09:31:15;34.64;33.16;38.98;;
67398;Laerm;57728;50.448;18.824;2024-02-26T09:33:19;35.06;32.97;41.29;;
67398;Laerm;57728;50.448;18.824;2024-02-26T09:35:20;34.64;33.03;43.97;;
67398;Laerm;57728;50.448;18.824;2024-02-26T09:37:22;34.49;33.26;36.33;;
67398;Laerm;57728;50.448;18.824;2024-02-26T09:39:24;34.57;33.16;37.52;;
67398;Laerm;57728;50.448;18.824;2024-02-26T09:41:28;34.89;33.00;41.22;;
67398;Laerm;57728;50.448;18.824;2024-02-26T09:43:35;34.90;33.03;38.63;;
67398;Laerm;57728;50.448;18.824;2024-02-26T09:45:42;35.20;33.43;45.91;;
67398;Laerm;57728;50.448;18.824;2024-02-26T09:47:45;34.94;33.35;38.58;;
67398;Laerm;57728;50.448;18.824;2024-02-26T09:49:50;35.35;33.26;40.11;;
67398;Laerm;57728;50.448;18.824;2024-02-26T09:51:56;35.03;33.27;39.71;;
67398;Laerm;57728;50.448;18.824;2024-02-26T09:54:00;34.98;33.34;42.05;;
67398;Laerm;57728;50.448;18.824;2024-02-26T09:56:02;34.77;33.10;39.40;;
67398;Laerm;57728;50.448;18.824;2024-02-26T09:58:05;34.95;33.23;42.01;;
67398;Laerm;57728;50.448;18.824;2024-02-26T10:00:15;35.32;33.41;42.31;;
67398;Laerm;57728;50.448;18.824;2024-02-26T10:02:20;35.01;33.36;42.45;;
67398;Laerm;57728;50.448;18.824;2024-02-26T10:04:24;35.25;33.60;44.64;;
67398;Laerm;57728;50.448;18.824;2024-02-26T10:06:29;35.87;33.48;49.29;;
67398;Laerm;57728;50.448;18.824;2024-02-26T10:08:30;37.27;33.61;60.37;;
67398;Laerm;57728;50.448;18.824;2024-02-26T10:10:32;36.36;33.25;55.45;;
67398;Laerm;57728;50.448;18.824;2024-02-26T10:12:33;35.73;33.38;44.16;;
67398;Laerm;57728;50.448;18.824;2024-02-26T10:14:34;35.16;33.41;45.46;;
67398;Laerm;57728;50.448;18.824;2024-02-26T10:16:38;35.39;33.40;44.23;;
67398;Laerm;57728;50.448;18.824;2024-02-26T10:18:49;35.56;33.36;50.06;;
67398;Laerm;57728;50.448;18.824;2024-02-26T10:21:01;35.13;33.59;43.70;;
67398;Laerm;57728;50.448;18.824;2024-02-26T10:23:04;34.93;33.16;42.33;;
67398;Laerm;57728;50.448;18.824;2024-02-26T10:25:06;35.60;33.24;49.23;;
67398;Laerm;57728;50.448;18.824;2024-02-26T10:27:08;35.28;33.17;43.35;;
67398;Laerm;57728;50.448;18.824;2024-02-26T10:29:11;35.34;33.45;46.84;;
67398;Laerm;57728;50.448;18.824;2024-02-26T10:31:14;35.60;33.73;43.97;;
67398;Laerm;57728;50.448;18.824;2024-02-26T10:33:15;35.62;33.77;44.86;;
67398;Laerm;57728;50.448;18.824;2024-02-26T10:35:19;35.81;33.52;44.83;;
67398;Laerm;57728;50.448;18.824;2024-02-26T10:37:23;35.33;33.49;44.59;;
67398;Laerm;57728;50.448;18.824;2024-02-26T10:39:26;35.21;33.49;43.77;;
67398;Laerm;57728;50.448;18.824;2024-02-26T10:41:27;35.26;33.30;41.69;;
67398;Laerm;57728;50.448;18.824;2024-02-26T10:43:32;35.21;33.46;46.16;;
67398;Laerm;57728;50.448;18.824;2024-02-26T10:45:33;35.69;33.27;42.91;;
67398;Laerm;57728;50.448;18.824;2024-02-26T10:47:38;35.06;33.55;42.29;;
67398;Laerm;57728;50.448;18.824;2024-02-26T10:49:46;35.04;33.33;44.37;;
67398;Laerm;57728;50.448;18.824;2024-02-26T10:51:56;34.72;33.23;38.19;;
67398;Laerm;57728;50.448;18.824;2024-02-26T10:54:04;34.75;33.30;46.52;;
67398;Laerm;57728;50.448;18.824;2024-02-26T10:56:11;34.89;33.56;42.00;;
67398;Laerm;57728;50.448;18.824;2024-02-26T10:58:14;35.57;33.22;44.92;;
67398;Laerm;57728;50.448;18.824;2024-02-26T11:00:18;34.88;33.19;42.94;;
67398;Laerm;57728;50.448;18.824;2024-02-26T11:02:20;34.71;33.16;43.10;;
67398;Laerm;57728;50.448;18.824;2024-02-26T11:04:22;34.66;33.05;38.19;;
67398;Laerm;57728;50.448;18.824;2024-02-26T11:06:27;34.75;33.02;40.89;;
67398;Laerm;57728;50.448;18.824;2024-02-26T11:08:31;34.86;32.92;48.13;;
67398;Laerm;57728;50.448;18.824;2024-02-26T11:10:33;35.93;32.99;53.49;;
67398;Laerm;57728;50.448;18.824;2024-02-26T11:12:36;34.69;33.11;45.23;;